Station Historical Data
Daily Summary for May 29, 2012 Units:  English    Metric   Both
« Previous Day
Next Day »
Daily Weekly Monthly Yearly Custom
  High: Low: Average:
Temperature: 87.8 °F 65.0 °F 76.6 °F
Dew Point: 72.6 °F 62.6 °F 68.7 °F
Humidity: 95% 54% 78%
Wind Speed: 24.0mph 0.0mph 3mph
Wind Gust: 31.0mph - -
Wind- - South
Pressure: 29.89 in 29.74 in -
Precipitation: 0.31 in    
Historical Graphs
 
 
Tabular Data for May 29, 2012
Time Temperature Dew Point Pressure Wind Wind Speed Wind Gust Humidity Rainfall Rate (Hourly) Conditions
00:00 76.6 °F 70.0 °F 29.83 in ESE 1.0 mph 1.0 mph 80% 0.00 in
00:01 76.6 °F 70.3 °F 29.83 in ESE 1.0 mph 1.0 mph 81% 0.00 in
00:06 76.6 °F 70.3 °F 29.83 in ESE 1.0 mph 1.0 mph 81% 0.00 in
00:11 75.9 °F 69.7 °F 29.83 in Calm     81% 0.00 in
00:16 74.8 °F 69.3 °F 29.83 in Calm     83% 0.00 in
00:21 74.0 °F 69.2 °F 29.83 in Calm     85% 0.00 in
00:26 73.9 °F 69.4 °F 29.83 in Calm   1.0 mph 86% 0.00 in
00:31 73.7 °F 69.3 °F 29.83 in Calm   1.0 mph 86% 0.00 in
00:36 73.8 °F 69.7 °F 29.83 in NNE 1.0 mph 1.0 mph 87% 0.00 in
00:41 74.0 °F 69.6 °F 29.83 in Calm     86% 0.00 in
00:46 73.8 °F 69.3 °F 29.83 in Calm     86% 0.00 in
00:51 73.5 °F 69.4 °F 29.83 in Calm     87% 0.00 in
00:56 73.3 °F 69.2 °F 29.83 in ESE 2.0 mph 2.0 mph 87% 0.00 in
01:01 74.5 °F 69.7 °F 29.83 in ESE 2.0 mph 2.0 mph 85% 0.00 in
01:06 75.0 °F 69.5 °F 29.82 in Calm   2.0 mph 83% 0.00 in
01:11 74.9 °F 69.4 °F 29.83 in East 1.0 mph 2.0 mph 83% 0.00 in
01:16 75.0 °F 69.1 °F 29.83 in ESE 1.0 mph 1.0 mph 82% 0.00 in
01:21 74.9 °F 69.0 °F 29.83 in ESE 1.0 mph 1.0 mph 82% 0.00 in
01:27 75.1 °F 69.2 °F 29.83 in ESE 1.0 mph 1.0 mph 82% 0.00 in
01:32 75.2 °F 69.3 °F 29.83 in ESE 1.0 mph 1.0 mph 82% 0.00 in
01:37 75.1 °F 69.6 °F 29.83 in SE 3.0 mph 3.0 mph 83% 0.00 in
01:42 75.1 °F 69.9 °F 29.83 in SE 2.0 mph 3.0 mph 84% 0.00 in
01:47 75.2 °F 70.0 °F 29.83 in ESE 3.0 mph 3.0 mph 84% 0.00 in
01:52 75.1 °F 69.6 °F 29.83 in SE 3.0 mph 3.0 mph 83% 0.00 in
01:57 75.2 °F 69.3 °F 29.82 in ESE 3.0 mph 4.0 mph 82% 0.00 in
02:02 75.5 °F 69.3 °F 29.82 in ESE 2.0 mph 3.0 mph 81% 0.00 in
02:07 75.7 °F 69.1 °F 29.82 in ESE 2.0 mph 3.0 mph 80% 0.00 in
02:12 75.7 °F 69.1 °F 29.82 in ESE 2.0 mph 3.0 mph 80% 0.00 in
02:17 75.8 °F 68.8 °F 29.81 in ESE 2.0 mph 4.0 mph 79% 0.00 in
02:22 75.9 °F 68.6 °F 29.81 in ESE 3.0 mph 4.0 mph 78% 0.00 in
02:27 75.5 °F 68.9 °F 29.81 in ESE 3.0 mph 3.0 mph 80% 0.00 in
02:32 75.4 °F 68.8 °F 29.81 in ESE 3.0 mph 3.0 mph 80% 0.00 in
02:37 75.4 °F 68.4 °F 29.81 in ESE 3.0 mph 3.0 mph 79% 0.00 in
02:42 75.4 °F 68.8 °F 29.81 in ESE 3.0 mph 5.0 mph 80% 0.00 in
02:47 74.9 °F 68.7 °F 29.82 in ESE 4.0 mph 6.0 mph 81% 0.00 in
02:52 74.4 °F 68.9 °F 29.81 in ESE 3.0 mph 5.0 mph 83% 0.00 in
02:57 74.3 °F 68.8 °F 29.81 in ESE 3.0 mph 6.0 mph 83% 0.00 in
03:02 74.4 °F 68.6 °F 29.81 in SE 4.0 mph 5.0 mph 82% 0.00 in
03:07 74.5 °F 68.7 °F 29.81 in ESE 3.0 mph 6.0 mph 82% 0.00 in
03:12 74.6 °F 68.4 °F 29.82 in ESE 4.0 mph 6.0 mph 81% 0.00 in
03:17 74.3 °F 68.4 °F 29.82 in ESE 3.0 mph 4.0 mph 82% 0.00 in
03:22 73.9 °F 68.8 °F 29.82 in ESE 2.0 mph 3.0 mph 84% 0.00 in
03:27 73.6 °F 68.5 °F 29.82 in SE 2.0 mph 4.0 mph 84% 0.00 in
03:32 73.4 °F 68.3 °F 29.82 in SE 2.0 mph 4.0 mph 84% 0.00 in
03:37 73.2 °F 68.1 °F 29.82 in ESE 4.0 mph 6.0 mph 84% 0.00 in
03:42 73.4 °F 67.9 °F 29.82 in ESE 4.0 mph 6.0 mph 83% 0.00 in
03:47 73.6 °F 67.8 °F 29.82 in SE 2.0 mph 6.0 mph 82% 0.00 in
03:52 73.9 °F 67.7 °F 29.82 in SE 6.0 mph 6.0 mph 81% 0.00 in
03:57 74.2 °F 67.6 °F 29.82 in SE 3.0 mph 8.0 mph 80% 0.00 in
04:02 74.1 °F 67.5 °F 29.82 in SE 4.0 mph 5.0 mph 80% 0.00 in
04:07 74.2 °F 67.6 °F 29.82 in SE 4.0 mph 4.0 mph 80% 0.00 in
04:12 74.2 °F 67.6 °F 29.82 in SE 3.0 mph 7.0 mph 80% 0.00 in
04:18 74.0 °F 67.4 °F 29.82 in ESE 3.0 mph 3.0 mph 80% 0.00 in
04:23 73.9 °F 67.3 °F 29.82 in ESE 3.0 mph 3.0 mph 80% 0.00 in
04:27 73.7 °F 67.5 °F 29.82 in SSE 2.0 mph 2.0 mph 81% 0.00 in
04:32 73.5 °F 67.3 °F 29.83 in Calm   1.0 mph 81% 0.00 in
04:37 73.3 °F 67.1 °F 29.83 in Calm   2.0 mph 81% 0.00 in
04:43 72.9 °F 67.1 °F 29.83 in South 1.0 mph 1.0 mph 82% 0.00 in
04:48 72.7 °F 67.2 °F 29.83 in SE 1.0 mph 2.0 mph 83% 0.00 in
04:53 72.8 °F 67.3 °F 29.83 in ESE 2.0 mph 2.0 mph 83% 0.00 in
04:58 72.6 °F 67.2 °F 29.83 in ESE 2.0 mph 3.0 mph 83% 0.00 in
05:04 72.5 °F 67.1 °F 29.84 in ESE 1.0 mph 1.0 mph 83% 0.00 in
05:09 72.5 °F 67.1 °F 29.83 in ESE 1.0 mph 2.0 mph 83% 0.00 in
05:13 72.4 °F 66.9 °F 29.84 in SE 2.0 mph 2.0 mph 83% 0.00 in
05:19 72.3 °F 67.2 °F 29.84 in SE 1.0 mph 1.0 mph 84% 0.00 in
05:24 72.2 °F 67.1 °F 29.84 in ESE 3.0 mph 3.0 mph 84% 0.00 in
05:29 72.3 °F 67.2 °F 29.84 in SE 3.0 mph 4.0 mph 84% 0.00 in
05:34 72.4 °F 67.3 °F 29.84 in SE 2.0 mph 6.0 mph 84% 0.00 in
05:39 72.5 °F 67.1 °F 29.84 in SE 2.0 mph 5.0 mph 83% 0.00 in
05:44 72.4 °F 67.3 °F 29.84 in ESE 3.0 mph 4.0 mph 84% 0.00 in
05:49 72.1 °F 67.0 °F 29.84 in SE 3.0 mph 4.0 mph 84% 0.00 in
05:54 71.9 °F 67.2 °F 29.84 in SE 1.0 mph 4.0 mph 85% 0.00 in
05:59 71.7 °F 66.9 °F 29.84 in ESE 5.0 mph 5.0 mph 85% 0.00 in
06:04 71.7 °F 66.9 °F 29.84 in SE 6.0 mph 6.0 mph 85% 0.00 in
06:09 71.6 °F 66.9 °F 29.85 in ESE 2.0 mph 3.0 mph 85% 0.00 in
06:14 71.5 °F 66.8 °F 29.85 in SE 2.0 mph 3.0 mph 85% 0.00 in
06:19 71.4 °F 67.0 °F 29.85 in SE 3.0 mph 4.0 mph 86% 0.00 in
06:24 71.4 °F 67.0 °F 29.85 in SE 3.0 mph 6.0 mph 86% 0.00 in
06:29 71.4 °F 67.0 °F 29.85 in SE 4.0 mph 5.0 mph 86% 0.00 in
06:34 71.5 °F 67.1 °F 29.85 in SE 5.0 mph 7.0 mph 86% 0.00 in
06:39 71.5 °F 67.1 °F 29.85 in SE 4.0 mph 7.0 mph 86% 0.00 in
06:44 71.6 °F 67.2 °F 29.85 in SE 5.0 mph 7.0 mph 86% 0.00 in
06:49 71.5 °F 67.1 °F 29.85 in SE 4.0 mph 7.0 mph 86% 0.00 in
06:54 71.6 °F 67.2 °F 29.84 in SE 5.0 mph 7.0 mph 86% 0.00 in
06:59 71.5 °F 67.1 °F 29.85 in SE 4.0 mph 9.0 mph 86% 0.00 in
07:04 71.5 °F 67.1 °F 29.84 in SE 7.0 mph 8.0 mph 86% 0.00 in
07:09 71.5 °F 67.4 °F 29.85 in ESE 6.0 mph 9.0 mph 87% 0.00 in
07:14 71.6 °F 67.5 °F 29.85 in SE 5.0 mph 8.0 mph 87% 0.00 in
07:19 71.7 °F 67.3 °F 29.84 in SE 6.0 mph 8.0 mph 86% 0.00 in
07:24 71.8 °F 67.4 °F 29.84 in SE 5.0 mph 8.0 mph 86% 0.00 in
07:29 71.9 °F 67.8 °F 29.84 in ESE 7.0 mph 9.0 mph 87% 0.00 in
07:34 71.9 °F 67.8 °F 29.84 in SE 5.0 mph 7.0 mph 87% 0.00 in
07:39 72.0 °F 67.9 °F 29.85 in ESE 4.0 mph 7.0 mph 87% 0.00 in
07:44 72.0 °F 67.9 °F 29.85 in SE 6.0 mph 9.0 mph 87% 0.00 in
07:49 72.2 °F 68.1 °F 29.85 in ESE 5.0 mph 10.0 mph 87% 0.00 in
07:54 72.4 °F 68.3 °F 29.85 in ESE 7.0 mph 9.0 mph 87% 0.00 in
07:59 72.8 °F 68.4 °F 29.85 in East 3.0 mph 8.0 mph 86% 0.00 in
08:04 73.2 °F 68.8 °F 29.85 in ESE 6.0 mph 8.0 mph 86% 0.00 in
08:09 73.5 °F 69.1 °F 29.85 in ESE 4.0 mph 7.0 mph 86% 0.00 in
08:14 74.0 °F 69.2 °F 29.86 in SE 5.0 mph 8.0 mph 85% 0.00 in
08:19 74.1 °F 69.3 °F 29.86 in SE 6.0 mph 10.0 mph 85% 0.00 in
08:24 74.0 °F 68.9 °F 29.86 in SE 5.0 mph 8.0 mph 84% 0.00 in
08:29 73.9 °F 69.1 °F 29.86 in ESE 7.0 mph 8.0 mph 85% 0.00 in
08:35 73.8 °F 69.0 °F 29.85 in ESE 7.0 mph 11.0 mph 85% 0.00 in
08:40 73.7 °F 68.9 °F 29.86 in ESE 5.0 mph 8.0 mph 85% 0.00 in
08:45 73.7 °F 69.3 °F 29.86 in ESE 9.0 mph 10.0 mph 86% 0.00 in
08:50 73.8 °F 69.0 °F 29.86 in SE 7.0 mph 11.0 mph 85% 0.00 in
08:55 73.8 °F 69.0 °F 29.87 in SSE 8.0 mph 9.0 mph 85% 0.00 in
09:00 73.8 °F 69.3 °F 29.86 in ESE 5.0 mph 8.0 mph 86% 0.00 in
09:05 73.9 °F 69.4 °F 29.86 in SE 6.0 mph 9.0 mph 86% 0.00 in
09:10 74.0 °F 69.6 °F 29.86 in SE 6.0 mph 11.0 mph 86% 0.00 in
09:15 74.0 °F 69.6 °F 29.86 in SE 5.0 mph 9.0 mph 86% 0.00 in
09:20 74.0 °F 69.6 °F 29.86 in SE 9.0 mph 10.0 mph 86% 0.00 in
09:25 74.1 °F 69.7 °F 29.87 in SE 3.0 mph 7.0 mph 86% 0.00 in
09:30 74.2 °F 69.8 °F 29.86 in SE 5.0 mph 8.0 mph 86% 0.00 in
09:35 74.3 °F 69.8 °F 29.86 in SE 3.0 mph 6.0 mph 86% 0.00 in
09:40 74.4 °F 69.9 °F 29.86 in South 4.0 mph 6.0 mph 86% 0.00 in
09:45 74.4 °F 69.9 °F 29.86 in SSE 5.0 mph 8.0 mph 86% 0.00 in
09:46 74.4 °F 69.9 °F 29.86 in SSE 4.0 mph 6.0 mph 86% 0.00 in
09:51 74.4 °F 69.9 °F 29.87 in SSE 7.0 mph 7.0 mph 86% 0.00 in
09:56 74.4 °F 69.9 °F 29.87 in SW 4.0 mph 5.0 mph 86% 0.00 in
10:01 74.4 °F 69.9 °F 29.88 in WNW 4.0 mph 8.0 mph 86% 0.00 in
10:06 74.2 °F 70.1 °F 29.89 in WNW 3.0 mph 6.0 mph 87% 0.00 in
10:11 74.2 °F 70.4 °F 29.88 in WNW 4.0 mph 6.0 mph 88% 0.00 in
10:16 73.7 °F 69.6 °F 29.88 in NW 5.0 mph 10.0 mph 87% 0.00 in
10:21 73.5 °F 69.7 °F 29.88 in West 3.0 mph 3.0 mph 88% 0.00 in
10:26 73.7 °F 69.9 °F 29.88 in WSW 1.0 mph 3.0 mph 88% 0.00 in
10:31 73.8 °F 70.0 °F 29.87 in NW 1.0 mph 6.0 mph 88% 0.00 in
10:36 74.1 °F 70.3 °F 29.87 in West 2.0 mph 5.0 mph 88% 0.00 in
10:41 74.2 °F 70.1 °F 29.87 in WNW 3.0 mph 4.0 mph 87% 0.00 in
10:46 74.2 °F 70.1 °F 29.87 in West 3.0 mph 5.0 mph 87% 0.00 in
10:51 74.6 °F 70.1 °F 29.86 in WNW 2.0 mph 2.0 mph 86% 0.00 in
10:56 75.2 °F 70.4 °F 29.86 in WSW 2.0 mph 3.0 mph 85% 0.00 in
11:01 75.6 °F 70.8 °F 29.87 in SW 3.0 mph 3.0 mph 85% 0.00 in
11:06 76.2 °F 70.7 °F 29.86 in ESE 1.0 mph 3.0 mph 83% 0.00 in
11:12 76.6 °F 70.7 °F 29.86 in SW 1.0 mph 3.0 mph 82% 0.00 in
11:17 77.1 °F 71.2 °F 29.86 in WNW 2.0 mph 2.0 mph 82% 0.00 in
11:22 77.2 °F 70.9 °F 29.86 in SSE 3.0 mph 4.0 mph 81% 0.00 in
11:27 77.4 °F 70.8 °F 29.86 in SW 2.0 mph 6.0 mph 80% 0.00 in
11:32 77.6 °F 71.3 °F 29.86 in SW 3.0 mph 4.0 mph 81% 0.00 in
11:37 77.9 °F 71.2 °F 29.86 in WSW 3.0 mph 5.0 mph 80% 0.00 in
11:42 78.1 °F 71.4 °F 29.86 in SSW 2.0 mph 4.0 mph 80% 0.00 in
11:47 78.4 °F 70.6 °F 29.86 in SSE 3.0 mph 4.0 mph 77% 0.00 in
11:52 78.8 °F 71.4 °F 29.86 in SW 4.0 mph 5.0 mph 78% 0.00 in
11:57 78.8 °F 70.6 °F 29.85 in South 3.0 mph 4.0 mph 76% 0.00 in
12:02 79.1 °F 70.5 °F 29.85 in SW 2.0 mph 3.0 mph 75% 0.00 in
12:07 79.4 °F 71.6 °F 29.85 in SSW 3.0 mph 5.0 mph 77% 0.00 in
12:12 79.6 °F 70.2 °F 29.85 in SSW 3.0 mph 8.0 mph 73% 0.00 in
12:17 79.6 °F 70.2 °F 29.85 in WNW 6.0 mph 6.0 mph 73% 0.00 in
12:22 79.2 °F 70.6 °F 29.84 in WSW 1.0 mph 5.0 mph 75% 0.00 in
12:27 79.5 °F 71.3 °F 29.84 in WSW 4.0 mph 4.0 mph 76% 0.00 in
12:32 79.7 °F 71.1 °F 29.84 in SSW 1.0 mph 3.0 mph 75% 0.00 in
12:37 80.6 °F 71.6 °F 29.84 in SSW 4.0 mph 5.0 mph 74% 0.00 in
12:42 80.3 °F 70.9 °F 29.84 in WSW 1.0 mph 5.0 mph 73% 0.00 in
12:47 80.6 °F 71.9 °F 29.84 in West 2.0 mph 5.0 mph 75% 0.00 in
12:52 80.3 °F 71.3 °F 29.84 in SW 6.0 mph 6.0 mph 74% 0.00 in
12:57 80.4 °F 71.4 °F 29.84 in SW 3.0 mph 5.0 mph 74% 0.00 in
13:02 80.9 °F 70.6 °F 29.83 in ENE 2.0 mph 4.0 mph 71% 0.00 in
13:07 81.5 °F 72.0 °F 29.83 in Calm   4.0 mph 73% 0.00 in
13:12 81.9 °F 71.2 °F 29.83 in NE 1.0 mph 4.0 mph 70% 0.00 in
13:17 81.9 °F 71.2 °F 29.83 in WNW 2.0 mph 6.0 mph 70% 0.00 in
13:22 81.4 °F 70.7 °F 29.83 in WNW 3.0 mph 5.0 mph 70% 0.00 in
13:27 81.7 °F 71.4 °F 29.83 in WSW 1.0 mph 5.0 mph 71% 0.00 in
13:32 82.3 °F 71.1 °F 29.83 in Calm   3.0 mph 69% 0.00 in
13:37 83.1 °F 72.3 °F 29.83 in Calm   2.0 mph 70% 0.00 in
13:42 83.2 °F 71.6 °F 29.83 in NNE 1.0 mph 3.0 mph 68% 0.00 in
13:48 82.8 °F 71.6 °F 29.82 in North 2.0 mph 4.0 mph 69% 0.00 in
13:53 82.8 °F 72.0 °F 29.82 in Calm   4.0 mph 70% 0.00 in
13:58 83.2 °F 72.0 °F 29.82 in SSW 1.0 mph 3.0 mph 69% 0.00 in
14:03 83.6 °F 71.5 °F 29.82 in Calm   3.0 mph 67% 0.00 in
14:08 83.9 °F 71.8 °F 29.82 in WNW 1.0 mph 4.0 mph 67% 0.00 in
14:13 84.3 °F 71.7 °F 29.81 in SE 1.0 mph 3.0 mph 66% 0.00 in
14:18 84.6 °F 72.0 °F 29.81 in SSW 2.0 mph 5.0 mph 66% 0.00 in
14:23 84.5 °F 71.4 °F 29.81 in ENE 1.0 mph 4.0 mph 65% 0.00 in
14:28 84.4 °F 71.8 °F 29.81 in Calm   4.0 mph 66% 0.00 in
14:33 85.1 °F 71.1 °F 29.81 in ESE 1.0 mph 2.0 mph 63% 0.00 in
14:38 85.7 °F 70.7 °F 29.80 in Calm   3.0 mph 61% 0.00 in
14:43 86.2 °F 70.7 °F 29.80 in Calm   1.0 mph 60% 0.00 in
14:48 86.1 °F 70.6 °F 29.80 in NE 4.0 mph 5.0 mph 60% 0.00 in
14:53 85.4 °F 70.4 °F 29.80 in NE 1.0 mph 4.0 mph 61% 0.00 in
14:58 85.7 °F 72.6 °F 29.80 in NE 3.0 mph 3.0 mph 65% 0.00 in
15:03 85.7 °F 71.7 °F 29.80 in NNW 2.0 mph 6.0 mph 63% 0.00 in
15:08 85.9 °F 72.3 °F 29.79 in NE 5.0 mph 5.0 mph 64% 0.00 in
15:13 85.7 °F 72.1 °F 29.79 in WNW 3.0 mph 5.0 mph 64% 0.00 in
15:18 85.6 °F 71.1 °F 29.79 in North 2.0 mph 7.0 mph 62% 0.00 in
15:23 85.5 °F 69.6 °F 29.79 in NE 1.0 mph 6.0 mph 59% 0.00 in
15:28 85.8 °F 70.3 °F 29.79 in Calm   4.0 mph 60% 0.00 in
15:33 86.3 °F 70.8 °F 29.78 in SE 1.0 mph 3.0 mph 60% 0.00 in
15:39 86.9 °F 70.4 °F 29.78 in NNW 1.0 mph 4.0 mph 58% 0.00 in
15:44 87.0 °F 70.4 °F 29.78 in North 1.0 mph 4.0 mph 58% 0.00 in
15:49 87.0 °F 69.4 °F 29.78 in NNE 3.0 mph 6.0 mph 56% 0.00 in
15:54 86.7 °F 68.6 °F 29.78 in North 5.0 mph 7.0 mph 55% 0.00 in
15:59 86.4 °F 69.9 °F 29.78 in NNE 3.0 mph 5.0 mph 58% 0.00 in
16:04 86.6 °F 69.6 °F 29.78 in SSE 1.0 mph 3.0 mph 57% 0.00 in
16:09 87.3 °F 70.2 °F 29.78 in WSW 3.0 mph 4.0 mph 57% 0.00 in
16:14 86.8 °F 69.2 °F 29.77 in NNW 2.0 mph 4.0 mph 56% 0.00 in
16:16 86.5 °F 69.5 °F 29.77 in WNW 2.0 mph 4.0 mph 57% 0.00 in
16:21 86.2 °F 68.7 °F 29.78 in WNW 2.0 mph 4.0 mph 56% 0.00 in
16:22 86.2 °F 69.2 °F 29.77 in NNW 2.0 mph 3.0 mph 57% 0.00 in
16:27 86.8 °F 70.3 °F 29.77 in NE 5.0 mph 5.0 mph 58% 0.00 in
16:32 86.8 °F 70.3 °F 29.77 in NNW 3.0 mph 6.0 mph 58% 0.00 in
16:37 87.0 °F 69.4 °F 29.77 in NE 4.0 mph 7.0 mph 56% 0.00 in
16:39 87.0 °F 69.4 °F 29.77 in NNW 1.0 mph 7.0 mph 56% 0.00 in
16:42 87.2 °F 70.6 °F 29.77 in WNW 4.0 mph 4.0 mph 58% 0.00 in
16:47 87.4 °F 69.8 °F 29.77 in NW 1.0 mph 3.0 mph 56% 0.00 in
16:52 87.6 °F 68.9 °F 29.77 in WNW 5.0 mph 8.0 mph 54% 0.00 in
16:57 87.4 °F 69.8 °F 29.77 in WNW 4.0 mph 6.0 mph 56% 0.00 in
17:02 87.4 °F 69.3 °F 29.77 in NW 3.0 mph 5.0 mph 55% 0.00 in
17:07 87.6 °F 69.4 °F 29.77 in WNW 3.0 mph 6.0 mph 55% 0.00 in
17:12 87.8 °F 69.6 °F 29.76 in West 5.0 mph 8.0 mph 55% 0.00 in
17:17 87.4 °F 69.3 °F 29.76 in WNW 6.0 mph 7.0 mph 55% 0.00 in
17:22 86.8 °F 68.2 °F 29.76 in NW 6.0 mph 11.0 mph 54% 0.00 in
17:27 86.9 °F 71.3 °F 29.76 in WSW 2.0 mph 4.0 mph 60% 0.00 in
17:32 87.3 °F 70.2 °F 29.76 in WSW 4.0 mph 8.0 mph 57% 0.00 in
17:37 87.3 °F 69.2 °F 29.76 in NW 5.0 mph 8.0 mph 55% 0.00 in
17:42 87.2 °F 70.1 °F 29.75 in West 5.0 mph 5.0 mph 57% 0.00 in
17:43 87.1 °F 69.5 °F 29.75 in NNW 6.0 mph 6.0 mph 56% 0.00 in
17:48 86.5 °F 70.0 °F 29.75 in WSW 5.0 mph 6.0 mph 58% 0.00 in
17:53 86.2 °F 70.2 °F 29.75 in WNW 4.0 mph 5.0 mph 59% 0.00 in
17:58 86.0 °F 70.5 °F 29.75 in West 3.0 mph 3.0 mph 60% 0.00 in
18:03 86.4 °F 71.4 °F 29.75 in WNW 3.0 mph 3.0 mph 61% 0.00 in
18:08 86.4 °F 70.9 °F 29.76 in WSW 2.0 mph 4.0 mph 60% 0.00 in
18:13 86.1 °F 70.6 °F 29.75 in WNW 4.0 mph 5.0 mph 60% 0.00 in
18:16 86.2 °F 69.2 °F 29.75 in WNW 4.0 mph 5.0 mph 57% 0.00 in
18:21 86.6 °F 72.0 °F 29.75 in WNW 6.0 mph 6.0 mph 62% 0.00 in
18:26 86.4 °F 69.9 °F 29.75 in NW 3.0 mph 7.0 mph 58% 0.00 in
18:31 86.6 °F 70.1 °F 29.75 in WNW 2.0 mph 6.0 mph 58% 0.00 in
18:36 86.3 °F 69.3 °F 29.75 in NW 5.0 mph 8.0 mph 57% 0.00 in
18:41 86.1 °F 69.6 °F 29.75 in WNW 4.0 mph 5.0 mph 58% 0.00 in
18:42 86.1 °F 69.6 °F 29.75 in WNW 4.0 mph 6.0 mph 58% 0.00 in
18:47 85.8 °F 69.8 °F 29.75 in WNW 4.0 mph 6.0 mph 59% 0.00 in
18:53 85.4 °F 71.4 °F 29.75 in NW 1.0 mph 4.0 mph 63% 0.00 in
18:58 85.4 °F 70.9 °F 29.75 in NW 3.0 mph 4.0 mph 62% 0.00 in
19:03 85.0 °F 71.0 °F 29.75 in NW 2.0 mph 4.0 mph 63% 0.00 in
19:08 84.5 °F 70.5 °F 29.74 in WNW 3.0 mph 3.0 mph 63% 0.00 in
19:13 84.0 °F 70.5 °F 29.74 in WNW 2.0 mph 3.0 mph 64% 0.00 in
19:18 83.9 °F 70.9 °F 29.74 in NW 3.0 mph 3.0 mph 65% 0.00 in
19:23 83.9 °F 70.9 °F 29.74 in WNW 1.0 mph 3.0 mph 65% 0.00 in
19:28 84.2 °F 71.6 °F 29.74 in WNW 1.0 mph 3.0 mph 66% 0.00 in
19:33 84.6 °F 71.1 °F 29.74 in Calm   2.0 mph 64% 0.00 in
19:38 84.8 °F 71.3 °F 29.75 in WNW 1.0 mph 2.0 mph 64% 0.00 in
19:43 85.0 °F 72.4 °F 29.74 in Calm   1.0 mph 66% 0.00 in
19:48 85.1 °F 71.6 °F 29.75 in WNW 1.0 mph 1.0 mph 64% 0.00 in
19:53 84.8 °F 71.7 °F 29.75 in NW 1.0 mph 2.0 mph 65% 0.00 in
19:58 84.2 °F 71.2 °F 29.75 in WNW 1.0 mph 2.0 mph 65% 0.00 in
20:03 83.5 °F 71.8 °F 29.75 in NW 1.0 mph 1.0 mph 68% 0.00 in
20:08 82.8 °F 71.6 °F 29.76 in NW 1.0 mph 1.0 mph 69% 0.00 in
20:13 82.2 °F 72.3 °F 29.76 in NW 1.0 mph 2.0 mph 72% 0.00 in
20:18 81.3 °F 72.2 °F 29.77 in NNW 2.0 mph 2.0 mph 74% 0.00 in
20:23 80.2 °F 72.3 °F 29.80 in North 12.0 mph 12.0 mph 77% 0.00 in
20:28 75.5 °F 64.6 °F 29.81 in NNW 24.0 mph 31.0 mph 69% 0.00 in
20:33 71.6 °F 64.8 °F 29.83 in NW 15.0 mph 22.0 mph 79% 0.00 in
20:38 68.0 °F 63.7 °F 29.83 in NW 14.0 mph 28.0 mph 86% 0.00 in
20:43 66.6 °F 62.6 °F 29.83 in North 12.0 mph 30.0 mph 87% 0.00 in
20:48 66.6 °F 62.9 °F 29.83 in NW 7.0 mph 17.0 mph 88% 0.00 in
20:53 66.5 °F 62.8 °F 29.83 in North 4.0 mph 10.0 mph 88% 0.00 in
20:58 66.4 °F 63.1 °F 29.82 in NNW 7.0 mph 9.0 mph 89% 0.40 in
21:03 66.1 °F 63.1 °F 29.82 in North 7.0 mph 7.0 mph 90% 0.34 in
21:08 65.8 °F 63.1 °F 29.82 in North 9.0 mph 10.0 mph 91% 0.28 in
21:13 65.6 °F 63.2 °F 29.81 in NNE 8.0 mph 8.0 mph 92% 0.21 in
21:19 65.5 °F 63.1 °F 29.80 in ENE 5.0 mph 8.0 mph 92% 1.27 in
21:24 65.5 °F 63.1 °F 29.80 in NE 7.0 mph 9.0 mph 92% 0.16 in
21:29 65.5 °F 63.1 °F 29.81 in SE 1.0 mph 4.0 mph 92% 0.08 in
21:34 65.5 °F 63.4 °F 29.82 in North 1.0 mph 2.0 mph 93% 0.12 in
21:39 65.5 °F 63.4 °F 29.81 in South 4.0 mph 5.0 mph 93% 0.30 in
21:44 65.4 °F 63.3 °F 29.81 in ESE 5.0 mph 7.0 mph 93% 0.09 in
21:49 65.5 °F 63.4 °F 29.80 in NNE 3.0 mph 4.0 mph 93% 0.05 in
21:54 65.4 °F 63.3 °F 29.80 in NNE 2.0 mph 5.0 mph 93% 0.00 in
21:59 65.3 °F 63.2 °F 29.80 in NW 1.0 mph 3.0 mph 93% 0.00 in
22:04 65.2 °F 63.4 °F 29.81 in SSW 1.0 mph 1.0 mph 94% 0.00 in
22:09 65.2 °F 63.4 °F 29.80 in SSE 2.0 mph 2.0 mph 94% 0.00 in
22:14 65.2 °F 63.4 °F 29.80 in Calm   3.0 mph 94% 0.00 in
22:19 65.2 °F 63.4 °F 29.80 in Calm   1.0 mph 94% 0.00 in
22:24 65.2 °F 63.4 °F 29.80 in SSW 1.0 mph 3.0 mph 94% 0.00 in
22:29 65.3 °F 63.5 °F 29.80 in Calm   4.0 mph 94% 0.00 in
22:34 65.4 °F 63.6 °F 29.80 in Calm   1.0 mph 94% 0.00 in
22:39 65.4 °F 63.6 °F 29.80 in Calm   1.0 mph 94% 0.00 in
22:44 65.3 °F 63.5 °F 29.80 in WNW 1.0 mph 1.0 mph 94% 0.00 in
22:49 65.3 °F 63.5 °F 29.80 in NNW 2.0 mph 2.0 mph 94% 0.00 in
22:54 65.3 °F 63.5 °F 29.80 in NNW 1.0 mph 2.0 mph 94% 0.00 in
22:59 65.2 °F 63.4 °F 29.80 in Calm   1.0 mph 94% 0.00 in
23:04 65.2 °F 63.4 °F 29.80 in Calm     94% 0.00 in
23:09 65.2 °F 63.4 °F 29.80 in North 1.0 mph 1.0 mph 94% 0.00 in
23:14 65.2 °F 63.4 °F 29.80 in Calm     94% 0.00 in
23:19 65.2 °F 63.4 °F 29.80 in North 1.0 mph 1.0 mph 94% 0.00 in
23:24 65.1 °F 63.3 °F 29.80 in North 1.0 mph 1.0 mph 94% 0.00 in
23:29 65.1 °F 63.3 °F 29.80 in North 1.0 mph 1.0 mph 94% 0.00 in
23:34 65.0 °F 63.2 °F 29.80 in NNW 1.0 mph 1.0 mph 94% 0.00 in
23:39 65.0 °F 63.2 °F 29.80 in NW 1.0 mph 2.0 mph 94% 0.00 in
23:44 65.0 °F 63.2 °F 29.80 in Calm     94% 0.00 in
23:49 65.0 °F 63.2 °F 29.81 in SW 3.0 mph 3.0 mph 94% 0.00 in
23:54 65.0 °F 63.2 °F 29.81 in West 2.0 mph 4.0 mph 94% 0.00 in
23:59 65.0 °F 63.5 °F 29.80 in NW 2.0 mph 2.0 mph 95% 0.00 in
Compliments of Weather Underground